Time;durP1;ratioP1;P1;durP2;ratioP2;P2;SDS_P1;SDS_P2;PMS_P1;PMS_P2;Temp;Humidity;BMP_temperature;BMP_pressure;BME280_temperature;BME280_humidity;BME280_pressure;Samples;Min_cycle;Max_cycle;Signal;HPM_P1;HPM_P2
2022/08/13 00:00:32;;;;;;;6.18;5.35;;;;;;;;;;10089054;28;20412;-70
2022/08/13 00:05:29;;;;;;;6.70;5.35;;;;;;;;;;10088750;28;20043;-70
2022/08/13 00:10:40;;;;;;;6.88;5.40;;;;;;;;;;10103484;28;20054;-70
2022/08/13 00:15:38;;;;;;;6.35;4.50;;;;;;;;;;10095318;28;20074;-70
2022/08/13 00:20:40;;;;;;;5.85;5.00;;;;;;;;;;10096758;28;20129;-70
2022/08/13 00:25:50;;;;;;;5.80;5.20;;;;;;;;;;10090618;28;20066;-70
2022/08/13 00:30:49;;;;;;;6.05;5.40;;;;;;;;;;10103237;28;20831;-70
2022/08/13 00:35:47;;;;;;;6.00;4.72;;;;;;;;;;10094022;28;20509;-70
2022/08/13 00:40:52;;;;;;;6.10;5.20;;;;;;;;;;10093979;28;20068;-70
2022/08/13 00:45:54;;;;;;;8.43;5.28;;;;;;;;;;10105344;28;20470;-70
2022/08/13 00:50:51;;;;;;;6.72;5.70;;;;;;;;;;10101014;28;20077;-70
2022/08/13 00:55:48;;;;;;;6.88;5.30;;;;;;;;;;10105692;28;20462;-69
2022/08/13 01:00:48;;;;;;;7.93;5.53;;;;;;;;;;10105053;28;20085;-69
2022/08/13 01:05:46;;;;;;;6.05;5.45;;;;;;;;;;10091308;28;20051;-69
2022/08/13 01:10:43;;;;;;;8.07;5.05;;;;;;;;;;10097436;28;20067;-70
2022/08/13 01:15:54;;;;;;;5.15;4.53;;;;;;;;;;10093562;28;20137;-70
2022/08/13 01:21:00;;;;;;;7.55;5.20;;;;;;;;;;10100359;28;20047;-70
2022/08/13 01:25:59;;;;;;;6.95;4.88;;;;;;;;;;10094971;28;20097;-69
2022/08/13 01:31:06;;;;;;;8.07;4.80;;;;;;;;;;10095559;28;20070;-69
2022/08/13 01:36:13;;;;;;;5.90;5.07;;;;;;;;;;10090388;28;20057;-69
2022/08/13 01:41:18;;;;;;;6.13;4.88;;;;;;;;;;10099570;28;20147;-69
2022/08/13 01:46:16;;;;;;;9.68;5.10;;;;;;;;;;10108037;28;20055;-69
2022/08/13 01:51:17;;;;;;;5.22;4.32;;;;;;;;;;10097992;28;20051;-70
2022/08/13 01:56:21;;;;;;;5.97;4.88;;;;;;;;;;10090907;28;20529;-69
2022/08/13 02:01:25;;;;;;;11.68;5.22;;;;;;;;;;10098358;28;20045;-70
2022/08/13 02:06:40;;;;;;;10.35;5.65;;;;;;;;;;10075596;28;20591;-68
2022/08/13 02:11:38;;;;;;;9.85;5.25;;;;;;;;;;10081417;28;20137;-69
2022/08/13 02:16:41;;;;;;;6.13;4.90;;;;;;;;;;10086238;28;20047;-69
2022/08/13 02:21:39;;;;;;;6.95;5.28;;;;;;;;;;10094694;28;20077;-70
2022/08/13 02:26:42;;;;;;;5.25;4.68;;;;;;;;;;10095315;28;20043;-70
2022/08/13 02:31:49;;;;;;;5.82;4.57;;;;;;;;;;10102316;28;20042;-70
2022/08/13 02:37:05;;;;;;;7.93;4.65;;;;;;;;;;10084085;28;20055;-69
2022/08/13 02:42:22;;;;;;;10.52;5.22;;;;;;;;;;10097232;28;20049;-70
2022/08/13 02:47:20;;;;;;;6.28;4.20;;;;;;;;;;10080349;28;20050;-69
2022/08/13 02:52:29;;;;;;;8.07;5.32;;;;;;;;;;10076246;28;20390;-69
2022/08/13 02:57:25;;;;;;;7.18;4.55;;;;;;;;;;10104525;28;20134;-69
2022/08/13 03:02:23;;;;;;;5.57;4.20;;;;;;;;;;10098404;28;20090;-69
2022/08/13 03:07:21;;;;;;;8.68;5.13;;;;;;;;;;10090729;28;20552;-69
2022/08/13 03:12:20;;;;;;;6.40;5.40;;;;;;;;;;10097564;28;20154;-69
2022/08/13 03:17:27;;;;;;;7.93;5.20;;;;;;;;;;10102669;28;20049;-69
2022/08/13 03:22:25;;;;;;;9.43;5.50;;;;;;;;;;10090831;28;20047;-69
2022/08/13 03:27:24;;;;;;;7.50;5.10;;;;;;;;;;10078225;28;20051;-69
2022/08/13 03:32:27;;;;;;;10.27;4.75;;;;;;;;;;10087523;28;20130;-69
2022/08/13 03:37:27;;;;;;;5.68;4.45;;;;;;;;;;10101624;28;20501;-69
2022/08/13 03:42:29;;;;;;;4.82;4.22;;;;;;;;;;10087907;28;20071;-69
2022/08/13 03:47:45;;;;;;;8.25;4.43;;;;;;;;;;10086308;28;20051;-69
2022/08/13 03:52:42;;;;;;;5.68;4.53;;;;;;;;;;10092869;28;20039;-69
2022/08/13 03:57:39;;;;;;;7.85;5.00;;;;;;;;;;10098280;28;20097;-69
2022/08/13 04:02:56;;;;;;;6.28;4.75;;;;;;;;;;10109347;28;20034;-69
2022/08/13 04:07:55;;;;;;;8.70;4.90;;;;;;;;;;10098487;28;20125;-69
2022/08/13 04:12:53;;;;;;;6.07;4.72;;;;;;;;;;10095267;28;20054;-69
2022/08/13 04:17:49;;;;;;;6.65;4.40;;;;;;;;;;10108072;28;20063;-69
2022/08/13 04:22:46;;;;;;;6.85;5.10;;;;;;;;;;10094120;28;20043;-70
2022/08/13 04:27:45;;;;;;;7.70;5.15;;;;;;;;;;10103672;28;20127;-70
2022/08/13 04:32:48;;;;;;;6.57;4.60;;;;;;;;;;10095039;28;20043;-69
2022/08/13 04:38:08;;;;;;;7.57;4.95;;;;;;;;;;10087160;28;20047;-70
2022/08/13 04:43:07;;;;;;;8.02;5.53;;;;;;;;;;10097072;28;20047;-69
2022/08/13 04:48:09;;;;;;;6.50;4.80;;;;;;;;;;10098540;28;20138;-69
2022/08/13 04:53:07;;;;;;;5.00;4.50;;;;;;;;;;10104723;28;20090;-69
2022/08/13 04:58:04;;;;;;;7.90;4.90;;;;;;;;;;10090760;28;20788;-69
2022/08/13 05:03:11;;;;;;;6.03;4.95;;;;;;;;;;10095528;28;20101;-68
2022/08/13 05:08:08;;;;;;;4.95;4.43;;;;;;;;;;10103752;28;20741;-69
2022/08/13 05:13:17;;;;;;;8.23;4.60;;;;;;;;;;10099872;28;20537;-68
2022/08/13 05:18:16;;;;;;;6.20;5.45;;;;;;;;;;10087439;28;20043;-69
2022/08/13 05:23:24;;;;;;;7.50;4.90;;;;;;;;;;10104561;28;20062;-70
2022/08/13 05:28:41;;;;;;;6.63;5.05;;;;;;;;;;10093518;28;20097;-70
2022/08/13 05:33:38;;;;;;;5.68;4.70;;;;;;;;;;10091733;28;20125;-70
2022/08/13 05:38:58;;;;;;;4.82;4.28;;;;;;;;;;10101856;28;20057;-70
2022/08/13 05:43:55;;;;;;;5.97;4.88;;;;;;;;;;10093012;28;20126;-69
2022/08/13 05:48:57;;;;;;;6.40;4.80;;;;;;;;;;10097525;28;20099;-70
2022/08/13 05:53:59;;;;;;;5.57;4.85;;;;;;;;;;10111679;28;20042;-70
2022/08/13 06:04:42;;;;;;;6.25;4.90;;;;;;;;;;10088388;28;20799;-70
2022/08/13 06:09:42;;;;;;;5.82;4.60;;;;;;;;;;10094819;28;20058;-68
2022/08/13 06:14:38;;;;;;;6.82;5.60;;;;;;;;;;10090455;28;20043;-68
2022/08/13 06:19:36;;;;;;;7.75;5.50;;;;;;;;;;10081843;28;20039;-68
2022/08/13 06:24:40;;;;;;;6.70;5.30;;;;;;;;;;10093524;28;20578;-69
2022/08/13 06:29:51;;;;;;;7.00;5.03;;;;;;;;;;10098157;28;20596;-69
2022/08/13 06:34:47;;;;;;;5.60;4.85;;;;;;;;;;10088862;28;20669;-69
2022/08/13 06:39:44;;;;;;;6.05;5.45;;;;;;;;;;10091365;28;20823;-70
2022/08/13 06:44:58;;;;;;;7.95;5.55;;;;;;;;;;10077751;28;20051;-69
2022/08/13 06:49:55;;;;;;;5.53;5.03;;;;;;;;;;10080990;28;20053;-70
2022/08/13 06:54:57;;;;;;;11.30;5.40;;;;;;;;;;10078050;28;20051;-70
2022/08/13 06:59:57;;;;;;;5.93;5.28;;;;;;;;;;10081307;28;20130;-70
2022/08/13 07:05:13;;;;;;;8.95;5.78;;;;;;;;;;10086156;28;20076;-69
2022/08/13 07:10:16;;;;;;;7.70;5.70;;;;;;;;;;10086927;28;20076;-69
2022/08/13 07:15:13;;;;;;;6.75;6.07;;;;;;;;;;10091337;28;20214;-67
2022/08/13 07:20:20;;;;;;;8.00;7.10;;;;;;;;;;10090123;28;20101;-68
2022/08/13 07:25:20;;;;;;;11.73;6.65;;;;;;;;;;10089506;28;20047;-67
2022/08/13 07:30:19;;;;;;;6.72;6.13;;;;;;;;;;10090746;28;20057;-68
2022/08/13 07:35:16;;;;;;;7.28;6.57;;;;;;;;;;10052308;28;20059;-67
2022/08/13 07:40:14;;;;;;;8.00;6.38;;;;;;;;;;10082872;28;20063;-67
2022/08/13 07:45:11;;;;;;;22.38;12.98;;;;;;;;;;10081588;28;20126;-67
2022/08/13 07:50:27;;;;;;;8.68;6.60;;;;;;;;;;10080442;28;20045;-68
2022/08/13 07:55:27;;;;;;;7.97;7.18;;;;;;;;;;10081913;28;20470;-67
2022/08/13 08:00:45;;;;;;;8.82;7.47;;;;;;;;;;10083214;28;20050;-68
2022/08/13 08:05:44;;;;;;;9.82;7.55;;;;;;;;;;10078015;28;20048;-67
2022/08/13 08:10:41;;;;;;;8.82;7.60;;;;;;;;;;10088352;28;20497;-67
2022/08/13 08:15:39;;;;;;;8.77;7.82;;;;;;;;;;10084158;28;20055;-68
2022/08/13 08:21:05;;;;;;;8.90;8.00;;;;;;;;;;10091631;28;20062;-68
2022/08/13 08:26:21;;;;;;;9.30;8.50;;;;;;;;;;10088502;28;20053;-67
2022/08/13 08:31:19;;;;;;;8.45;7.80;;;;;;;;;;10083244;28;20043;-68
2022/08/13 08:36:39;;;;;;;8.18;7.47;;;;;;;;;;10076465;28;20049;-67
2022/08/13 08:47:00;;;;;;;9.68;8.00;;;;;;;;;;10087240;28;20073;-67
2022/08/13 08:52:04;;;;;;;7.93;7.22;;;;;;;;;;10089165;28;20054;-67
2022/08/13 08:57:01;;;;;;;8.60;7.90;;;;;;;;;;10096070;28;20124;-67
2022/08/13 09:01:59;;;;;;;8.82;8.13;;;;;;;;;;10088552;28;20042;-67
2022/08/13 09:06:58;;;;;;;8.68;7.78;;;;;;;;;;10036334;28;1132370;-67
2022/08/13 09:11:55;;;;;;;7.53;6.93;;;;;;;;;;10079031;28;20575;-67
2022/08/13 09:16:55;;;;;;;8.02;7.43;;;;;;;;;;10082316;28;20165;-68
2022/08/13 09:21:52;;;;;;;9.32;7.82;;;;;;;;;;10076351;28;20503;-68
2022/08/13 09:26:48;;;;;;;8.60;8.00;;;;;;;;;;10092959;28;20051;-68
2022/08/13 09:31:58;;;;;;;8.45;7.85;;;;;;;;;;10081327;28;20051;-68
2022/08/13 09:36:58;;;;;;;8.80;8.00;;;;;;;;;;10080866;28;20493;-68
2022/08/13 09:41:56;;;;;;;8.50;7.90;;;;;;;;;;10082916;28;20051;-68
2022/08/13 09:46:53;;;;;;;9.05;8.18;;;;;;;;;;10087683;28;20134;-68
2022/08/13 09:51:49;;;;;;;8.95;8.25;;;;;;;;;;10079407;28;20047;-68
2022/08/13 09:57:06;;;;;;;9.27;8.30;;;;;;;;;;10083395;28;20061;-68
2022/08/13 10:02:12;;;;;;;8.48;7.75;;;;;;;;;;10075823;28;20417;-67
2022/08/13 10:07:12;;;;;;;8.07;7.32;;;;;;;;;;10099140;28;20130;-68
2022/08/13 10:12:18;;;;;;;7.47;6.88;;;;;;;;;;10080772;28;20051;-68
2022/08/13 10:17:16;;;;;;;8.75;7.90;;;;;;;;;;10078968;28;20055;-69
2022/08/13 10:22:13;;;;;;;9.32;8.52;;;;;;;;;;10075778;28;20047;-69
2022/08/13 10:27:18;;;;;;;8.25;7.55;;;;;;;;;;10077474;28;20046;-69
2022/08/13 10:32:15;;;;;;;9.38;8.68;;;;;;;;;;10073347;28;20064;-70
2022/08/13 10:37:14;;;;;;;11.15;8.02;;;;;;;;;;10076610;28;20142;-69
2022/08/13 10:42:11;;;;;;;8.18;7.68;;;;;;;;;;10083669;28;20142;-68
2022/08/13 10:47:08;;;;;;;8.85;8.05;;;;;;;;;;10075013;28;20568;-69
2022/08/13 10:52:05;;;;;;;8.80;8.10;;;;;;;;;;10076725;28;20079;-69
2022/08/13 10:57:07;;;;;;;8.60;7.90;;;;;;;;;;10089514;28;20812;-69
2022/08/13 11:02:08;;;;;;;9.02;8.35;;;;;;;;;;10084092;28;20047;-69
2022/08/13 11:07:13;;;;;;;8.93;8.23;;;;;;;;;;10093945;28;20094;-69
2022/08/13 11:12:10;;;;;;;9.07;8.23;;;;;;;;;;10075209;28;20158;-69
2022/08/13 11:17:09;;;;;;;8.60;7.95;;;;;;;;;;10091036;28;20133;-69
2022/08/13 11:22:28;;;;;;;9.82;9.00;;;;;;;;;;10075558;28;20746;-69
2022/08/13 11:27:25;;;;;;;10.65;9.85;;;;;;;;;;10094314;28;20058;-69
2022/08/13 11:32:41;;;;;;;10.27;9.50;;;;;;;;;;10088486;28;20051;-69
2022/08/13 11:37:41;;;;;;;9.77;9.18;;;;;;;;;;10083872;28;20126;-69
2022/08/13 11:42:37;;;;;;;10.18;8.40;;;;;;;;;;10079621;28;20428;-69
2022/08/13 11:47:40;;;;;;;10.13;9.43;;;;;;;;;;10084395;28;20553;-69
2022/08/13 11:52:41;;;;;;;10.00;9.30;;;;;;;;;;10099739;28;20039;-69
2022/08/13 11:57:38;;;;;;;10.20;9.30;;;;;;;;;;10073988;28;20055;-69
2022/08/13 12:02:43;;;;;;;11.15;10.25;;;;;;;;;;10086344;28;20036;-69
2022/08/13 12:07:41;;;;;;;11.18;9.88;;;;;;;;;;10084727;28;20412;-69
2022/08/13 12:12:44;;;;;;;11.10;10.23;;;;;;;;;;10085197;28;20561;-69
2022/08/13 12:17:47;;;;;;;10.75;9.95;;;;;;;;;;10093044;28;20039;-69
2022/08/13 12:22:49;;;;;;;11.13;10.32;;;;;;;;;;10089414;28;20045;-69
2022/08/13 12:27:47;;;;;;;11.02;10.23;;;;;;;;;;10090221;28;20046;-69
2022/08/13 12:32:44;;;;;;;11.90;10.90;;;;;;;;;;10090360;28;20118;-69
2022/08/13 12:37:40;;;;;;;11.13;10.23;;;;;;;;;;10091063;28;20067;-69
2022/08/13 12:42:40;;;;;;;11.90;10.90;;;;;;;;;;10090979;28;20046;-69
2022/08/13 12:47:36;;;;;;;10.55;9.73;;;;;;;;;;10098518;28;20509;-69
2022/08/13 12:52:33;;;;;;;11.05;10.15;;;;;;;;;;10103838;28;20085;-69
2022/08/13 12:57:30;;;;;;;11.57;9.48;;;;;;;;;;10099636;28;20093;-68
2022/08/13 13:02:46;;;;;;;12.45;11.25;;;;;;;;;;10101193;28;20042;-69
2022/08/13 13:07:49;;;;;;;9.70;8.80;;;;;;;;;;10082091;28;20047;-72
2022/08/13 13:13:05;;;;;;;10.38;9.60;;;;;;;;;;10078393;28;20078;-71
2022/08/13 13:18:25;;;;;;;9.48;8.77;;;;;;;;;;10088165;28;20134;-71
2022/08/13 13:23:41;;;;;;;9.77;8.98;;;;;;;;;;10078708;28;20425;-71
2022/08/13 13:28:57;;;;;;;10.45;9.38;;;;;;;;;;10074157;28;20710;-71
2022/08/13 13:33:53;;;;;;;21.20;15.68;;;;;;;;;;10080854;28;20064;-71
2022/08/13 13:38:50;;;;;;;10.43;9.52;;;;;;;;;;10086225;28;20043;-71
2022/08/13 13:43:51;;;;;;;10.90;10.07;;;;;;;;;;10080264;28;20875;-71
2022/08/13 13:48:49;;;;;;;10.02;9.13;;;;;;;;;;10069292;28;20366;-71
2022/08/13 13:53:46;;;;;;;9.70;8.93;;;;;;;;;;10073641;28;20133;-72
2022/08/13 13:59:02;;;;;;;12.00;10.90;;;;;;;;;;10073364;28;20046;-72
2022/08/13 14:04:00;;;;;;;10.20;9.30;;;;;;;;;;10086668;28;20047;-72
2022/08/13 14:09:00;;;;;;;10.07;9.27;;;;;;;;;;10096774;28;20636;-72
2022/08/13 14:13:57;;;;;;;10.45;9.50;;;;;;;;;;10104658;28;20058;-72
2022/08/13 14:18:53;;;;;;;10.80;10.05;;;;;;;;;;10103978;28;20043;-72
2022/08/13 14:23:50;;;;;;;10.32;9.43;;;;;;;;;;10097232;28;20047;-72
2022/08/13 14:28:47;;;;;;;10.20;9.30;;;;;;;;;;10081707;28;20050;-72
2022/08/13 14:33:47;;;;;;;9.57;8.68;;;;;;;;;;10087899;28;20058;-72
2022/08/13 14:38:52;;;;;;;9.50;8.63;;;;;;;;;;10102658;28;20524;-72
2022/08/13 14:43:50;;;;;;;8.95;8.18;;;;;;;;;;10106069;28;20049;-71
2022/08/13 14:48:58;;;;;;;10.15;9.25;;;;;;;;;;10097384;28;20568;-72
2022/08/13 14:53:56;;;;;;;9.52;8.60;;;;;;;;;;10076790;28;20445;-72
2022/08/13 14:58:52;;;;;;;10.45;9.35;;;;;;;;;;10087759;28;20043;-72
2022/08/13 15:03:55;;;;;;;9.75;8.88;;;;;;;;;;10102123;28;20426;-72
2022/08/13 15:08:51;;;;;;;10.50;9.05;;;;;;;;;;10103676;28;20058;-72
2022/08/13 15:13:48;;;;;;;10.00;9.00;;;;;;;;;;10107696;28;20042;-72
2022/08/13 15:18:52;;;;;;;9.13;8.43;;;;;;;;;;10094978;28;20039;-72
2022/08/13 15:23:54;;;;;;;10.13;9.10;;;;;;;;;;10091722;28;20142;-72
2022/08/13 15:28:51;;;;;;;9.95;9.15;;;;;;;;;;10088924;28;20043;-71
2022/08/13 15:33:47;;;;;;;9.93;9.10;;;;;;;;;;10100050;28;20556;-72
2022/08/13 15:38:44;;;;;;;10.57;9.48;;;;;;;;;;10100285;28;20052;-72
2022/08/13 15:43:42;;;;;;;10.68;9.73;;;;;;;;;;10106309;28;20046;-72
2022/08/13 15:48:38;;;;;;;9.88;8.98;;;;;;;;;;10103638;28;20050;-72
2022/08/13 15:53:34;;;;;;;9.85;9.05;;;;;;;;;;10114386;28;20070;-72
2022/08/13 15:58:31;;;;;;;10.45;9.43;;;;;;;;;;10090253;28;20161;-71
2022/08/13 16:03:31;;;;;;;10.10;7.90;;;;;;;;;;10081999;28;20058;-72
2022/08/13 16:08:34;;;;;;;8.40;7.70;;;;;;;;;;10086972;28;20142;-72
2022/08/13 16:13:30;;;;;;;8.88;7.45;;;;;;;;;;10088688;28;20154;-73
2022/08/13 16:18:32;;;;;;;9.55;8.55;;;;;;;;;;10082220;28;20039;-72
2022/08/13 16:23:31;;;;;;;12.60;11.27;;;;;;;;;;10079618;28;20162;-72
2022/08/13 16:28:47;;;;;;;8.45;7.55;;;;;;;;;;10088432;28;20050;-72
2022/08/13 16:33:44;;;;;;;8.27;7.57;;;;;;;;;;10091169;28;20054;-72
2022/08/13 16:38:47;;;;;;;11.13;9.95;;;;;;;;;;10093912;28;20126;-72
2022/08/13 16:43:45;;;;;;;8.68;7.85;;;;;;;;;;10094998;28;20058;-72
2022/08/13 16:48:56;;;;;;;7.63;7.03;;;;;;;;;;10076636;28;20114;-72
2022/08/13 16:53:53;;;;;;;7.35;6.75;;;;;;;;;;10078287;28;20114;-72
2022/08/13 16:59:09;;;;;;;7.65;7.05;;;;;;;;;;10091662;28;20098;-72
2022/08/13 17:09:44;;;;;;;7.50;6.50;;;;;;;;;;10090424;28;20129;-71
2022/08/13 17:14:42;;;;;;;20.50;8.18;;;;;;;;;;10102063;28;20672;-72
2022/08/13 17:19:41;;;;;;;9.43;7.07;;;;;;;;;;10098471;28;20047;-72
2022/08/13 17:24:58;;;;;;;7.18;6.50;;;;;;;;;;10098501;28;20484;-72
2022/08/13 17:29:55;;;;;;;6.65;6.05;;;;;;;;;;10094085;28;20154;-71
2022/08/13 17:35:01;;;;;;;8.05;6.65;;;;;;;;;;10091899;28;20134;-71
2022/08/13 17:39:59;;;;;;;7.72;7.10;;;;;;;;;;10050071;28;20059;-72
2022/08/13 17:44:57;;;;;;;7.82;7.13;;;;;;;;;;10089427;28;20042;-72
2022/08/13 17:49:59;;;;;;;6.95;6.38;;;;;;;;;;10081740;28;20465;-73
2022/08/13 17:54:56;;;;;;;;;;;;;;;;;;10097430;28;20421;-72
2022/08/13 17:59:52;;;;;;;9.45;7.57;;;;;;;;;;10101972;28;20037;-72
2022/08/13 18:04:53;;;;;;;8.90;6.97;;;;;;;;;;10097618;28;20500;-72
2022/08/13 18:09:53;;;;;;;8.45;6.15;;;;;;;;;;10095931;28;20042;-72
2022/08/13 18:14:50;;;;;;;7.78;6.10;;;;;;;;;;10108731;28;20070;-72
2022/08/13 18:19:51;;;;;;;6.70;6.10;;;;;;;;;;10106583;28;20595;-72
2022/08/13 18:24:51;;;;;;;6.88;6.28;;;;;;;;;;10099669;28;20070;-72
2022/08/13 18:29:47;;;;;;;6.18;5.68;;;;;;;;;;10084445;28;20046;-71
2022/08/13 18:34:56;;;;;;;6.80;5.57;;;;;;;;;;10089001;28;20055;-70
2022/08/13 18:39:53;;;;;;;7.72;5.40;;;;;;;;;;10084485;28;20043;-70
2022/08/13 18:44:49;;;;;;;6.50;5.90;;;;;;;;;;10085697;28;20061;-70
2022/08/13 18:49:50;;;;;;;7.13;6.53;;;;;;;;;;10079839;28;20062;-71
2022/08/13 18:54:47;;;;;;;8.30;6.63;;;;;;;;;;10074790;28;20446;-71
2022/08/13 18:59:50;;;;;;;7.32;6.15;;;;;;;;;;10086502;28;20044;-72
2022/08/13 19:04:58;;;;;;;7.30;6.50;;;;;;;;;;10096538;28;20043;-71
2022/08/13 19:10:15;;;;;;;7.57;6.28;;;;;;;;;;10084362;28;20051;-71
2022/08/13 19:15:14;;;;;;;6.63;5.95;;;;;;;;;;10083644;28;20065;-71
2022/08/13 19:20:12;;;;;;;7.30;6.35;;;;;;;;;;10085947;28;20476;-71
2022/08/13 19:25:10;;;;;;;9.18;6.20;;;;;;;;;;10094484;28;20135;-69
2022/08/13 19:30:07;;;;;;;8.20;7.07;;;;;;;;;;10079222;28;20149;-69
2022/08/13 19:35:05;;;;;;;8.35;6.97;;;;;;;;;;10087487;28;20121;-69
2022/08/13 19:40:08;;;;;;;9.38;6.05;;;;;;;;;;10086975;28;20446;-69
2022/08/13 19:45:24;;;;;;;7.85;6.32;;;;;;;;;;10092787;28;20108;-69
2022/08/13 19:50:26;;;;;;;6.85;6.25;;;;;;;;;;10088145;28;20497;-69
2022/08/13 19:55:23;;;;;;;9.90;6.35;;;;;;;;;;10081446;28;20505;-69
2022/08/13 20:00:40;;;;;;;9.15;6.10;;;;;;;;;;10078350;28;20051;-68
2022/08/13 20:05:38;;;;;;;6.70;6.10;;;;;;;;;;10088217;28;20055;-68
2022/08/13 20:10:49;;;;;;;10.82;6.90;;;;;;;;;;10068264;28;20055;-69
2022/08/13 20:15:45;;;;;;;7.75;6.68;;;;;;;;;;10091181;28;20089;-68
2022/08/13 20:20:51;;;;;;;7.32;6.35;;;;;;;;;;10083025;28;20059;-69
2022/08/13 20:25:51;;;;;;;8.05;5.93;;;;;;;;;;10085791;28;20061;-69
2022/08/13 20:31:01;;;;;;;7.63;6.40;;;;;;;;;;10088769;28;20044;-69
2022/08/13 20:35:58;;;;;;;11.10;6.95;;;;;;;;;;10095622;28;20053;-68
2022/08/13 20:40:55;;;;;;;8.15;6.43;;;;;;;;;;10109237;28;20504;-68
2022/08/13 20:45:53;;;;;;;6.22;5.63;;;;;;;;;;10095588;28;20043;-70
2022/08/13 20:50:49;;;;;;;6.85;5.10;;;;;;;;;;10088913;28;20043;-70
2022/08/13 20:55:48;;;;;;;9.45;6.07;;;;;;;;;;10074299;28;20154;-70
2022/08/13 21:00:45;;;;;;;5.57;5.07;;;;;;;;;;10091690;28;20050;-70
2022/08/13 21:05:49;;;;;;;6.80;5.10;;;;;;;;;;10085990;28;20047;-70
2022/08/13 21:10:49;;;;;;;6.25;5.65;;;;;;;;;;10087190;28;20055;-70
2022/08/13 21:15:46;;;;;;;6.30;5.40;;;;;;;;;;10096447;28;20047;-70
2022/08/13 21:21:02;;;;;;;5.70;5.18;;;;;;;;;;10081734;28;20047;-70
2022/08/13 21:25:59;;;;;;;6.80;5.60;;;;;;;;;;10092930;28;20078;-70
2022/08/13 21:31:00;;;;;;;7.68;5.22;;;;;;;;;;10104020;28;20505;-70
2022/08/13 21:35:57;;;;;;;7.88;5.85;;;;;;;;;;10106625;28;20101;-70
2022/08/13 21:40:53;;;;;;;5.75;5.25;;;;;;;;;;10108101;28;20074;-70
2022/08/13 21:45:50;;;;;;;6.45;5.22;;;;;;;;;;10103276;28;20413;-70
2022/08/13 21:50:47;;;;;;;7.40;4.95;;;;;;;;;;10100690;28;20070;-70
2022/08/13 21:55:43;;;;;;;6.68;5.22;;;;;;;;;;10109909;28;20043;-69
2022/08/13 22:00:42;;;;;;;5.63;5.13;;;;;;;;;;10098966;28;20050;-70
2022/08/13 22:05:44;;;;;;;7.18;4.90;;;;;;;;;;10102566;28;20452;-70
2022/08/13 22:11:00;;;;;;;5.82;4.95;;;;;;;;;;10104602;28;20051;-70
2022/08/13 22:15:59;;;;;;;7.13;4.90;;;;;;;;;;10110672;28;20878;-70
2022/08/13 22:20:55;;;;;;;6.03;5.13;;;;;;;;;;10103224;28;20482;-70
2022/08/13 22:25:52;;;;;;;6.78;5.13;;;;;;;;;;10105590;28;20417;-70
2022/08/13 22:30:48;;;;;;;6.00;5.40;;;;;;;;;;10104782;28;20458;-70
2022/08/13 22:35:44;;;;;;;6.00;5.40;;;;;;;;;;10106465;28;20133;-70
2022/08/13 22:40:52;;;;;;;6.38;5.25;;;;;;;;;;10107968;28;20567;-70
2022/08/13 22:45:49;;;;;;;8.70;6.13;;;;;;;;;;10108204;28;20046;-70
2022/08/13 22:50:46;;;;;;;7.93;5.60;;;;;;;;;;10109328;28;20066;-70
2022/08/13 22:55:42;;;;;;;6.15;5.50;;;;;;;;;;10108905;28;20050;-69
2022/08/13 23:00:40;;;;;;;5.65;5.15;;;;;;;;;;10103549;28;20078;-70
2022/08/13 23:05:36;;;;;;;5.43;4.82;;;;;;;;;;10103268;28;20138;-70
2022/08/13 23:10:33;;;;;;;5.97;5.40;;;;;;;;;;10103006;28;20501;-70
2022/08/13 23:15:33;;;;;;;7.07;4.97;;;;;;;;;;10102154;28;20126;-70
2022/08/13 23:20:32;;;;;;;7.13;5.35;;;;;;;;;;10108068;28;20055;-69
2022/08/13 23:25:29;;;;;;;7.18;5.70;;;;;;;;;;10110173;28;20039;-69
2022/08/13 23:30:26;;;;;;;7.60;5.50;;;;;;;;;;10102103;28;20819;-70
2022/08/13 23:35:29;;;;;;;5.68;5.18;;;;;;;;;;10066352;28;20050;-69
2022/08/13 23:40:26;;;;;;;5.80;5.20;;;;;;;;;;10104370;28;20468;-70
2022/08/13 23:45:23;;;;;;;6.25;5.30;;;;;;;;;;10108246;28;20081;-70
2022/08/13 23:50:20;;;;;;;6.53;5.18;;;;;;;;;;10108270;28;20043;-70
2022/08/13 23:55:20;;;;;;;5.65;5.15;;;;;;;;;;10107798;28;20453;-70
